This is the latest recevied weather packets stored in our database for station/object KN6WGU. If no packets are shown the sender has not sent any weather packets the latest 10 day(s).
| Time | Temp. | Humidity | Pressure | Rain* | Wind** | Luminosity | Snow |
|---|---|---|---|---|---|---|---|
| 1777297407 | 12.78° C | 72% | 1012.8 hPa | 0 mm | - | 264 W/m² | - |
| 1777297103 | 12.22° C | 75% | 1012.9 hPa | 0 mm | - | 228 W/m² | - |
| 1777296800 | 12.22° C | 74% | 1012.7 hPa | 0 mm | - | 97 W/m² | - |
| 1777296496 | 11.67° C | 76% | 1013 hPa | 0 mm | - | 97 W/m² | - |
| 1777296191 | 11.67° C | 76% | 1012.9 hPa | 0 mm | - | 93 W/m² | - |
| 1777295888 | 11.67° C | 78% | 1012.9 hPa | 0 mm | - | 93 W/m² | - |
| 1777295586 | 11.67° C | 77% | 1013 hPa | 0 mm | - | 94 W/m² | - |
| 1777295283 | 11.11° C | 79% | 1012.9 hPa | 0 mm | - | 97 W/m² | - |
| 1777294981 | 11.11° C | 78% | 1013 hPa | 0 mm | - | 95 W/m² | - |
| 1777294676 | 11.11° C | 79% | 1013.2 hPa | 0 mm | - | 94 W/m² | - |
| 1777294372 | 11.11° C | 80% | 1013.2 hPa | 0 mm | - | 105 W/m² | - |
| 1777294069 | 10.56° C | 82% | 1013.4 hPa | 0 mm | - | 108 W/m² | - |
| 1777293766 | 10.56° C | 82% | 1013.5 hPa | 0 mm | - | 84 W/m² | - |
| 1777293460 | 10° C | 83% | 1013.2 hPa | 0 mm | - | 79 W/m² | - |
| 1777293157 | 10° C | 84% | 1013.4 hPa | 0 mm | - | 72 W/m² | - |
| 1777292856 | 10° C | 84% | 1013.4 hPa | 0 mm | - | 67 W/m² | - |
| 1777292552 | 9.44° C | 85% | 1013.2 hPa | 0 mm | - | 64 W/m² | - |
| 1777292248 | 9.44° C | 85% | 1013.2 hPa | 0 mm | - | 57 W/m² | - |
| 1777291945 | 9.44° C | 86% | 1013.2 hPa | 0 mm | - | 53 W/m² | - |
| 1777291641 | 8.89° C | 88% | 1013.3 hPa | 0 mm | - | 51 W/m² | - |
| 1777291338 | 8.89° C | 90% | 1013.4 hPa | 0 mm | - | 51 W/m² | - |
| 1777291029 | 8.33° C | 94% | 1013.3 hPa | 0 mm | - | 52 W/m² | - |
| 1777290726 | 8.33° C | 98% | 1013.4 hPa | 0 mm | - | 52 W/m² | - |
| 1777290423 | 7.78° C | 99% | 1013.3 hPa | 0 mm | - | 51 W/m² | - |
| 1777290117 | 7.78° C | 99% | 1013.5 hPa | 0 mm | - | 51 W/m² | - |
* Rain latest hour (hover to see other rain measurements)
** Current wind speed in m/s (hover to see current wind gust speed)